createdAt,value
2019-04-27T00:02:36.835Z,5.90
2019-04-27T00:05:35.026Z,6.50
2019-04-27T00:08:39.494Z,6.17
2019-04-27T00:11:45.879Z,6.17
2019-04-27T00:14:33.410Z,6.33
2019-04-27T00:17:47.284Z,7.93
2019-04-27T00:20:47.796Z,7.20
2019-04-27T00:23:35.533Z,7.50
2019-04-27T00:26:23.478Z,6.87
2019-04-27T00:29:11.121Z,5.77
2019-04-27T00:35:05.265Z,7.83
2019-04-27T00:38:13.066Z,9.13
2019-04-27T00:41:19.437Z,7.50
2019-04-27T00:44:07.069Z,9.37
2019-04-27T00:46:54.897Z,7.27
2019-04-27T00:49:44.227Z,6.30
2019-04-27T01:04:42.814Z,6.43
2019-04-27T01:07:30.950Z,7.00
2019-04-27T01:10:19.594Z,8.53
2019-04-27T01:13:09.090Z,5.63
2019-04-27T01:15:56.519Z,6.53
2019-04-27T01:18:44.045Z,6.50
2019-04-27T01:21:31.503Z,9.03
2019-04-27T01:24:19.096Z,7.17
2019-04-27T01:27:25.430Z,5.60
2019-04-27T01:33:28.311Z,7.57
2019-04-27T01:36:16.379Z,5.33
2019-04-27T01:39:04.216Z,6.73
2019-04-27T01:41:51.646Z,5.63
2019-04-27T01:44:39.402Z,5.67
2019-04-27T01:47:28.956Z,6.43
2019-04-27T01:50:18.861Z,7.90
2019-04-27T01:53:08.849Z,6.53
2019-04-27T01:55:56.214Z,4.73
2019-04-27T02:01:51.892Z,5.43
2019-04-27T02:04:53.841Z,5.07
2019-04-27T02:07:42.805Z,4.83
2019-04-27T02:10:30.232Z,4.87
2019-04-27T02:13:18.891Z,4.77
2019-04-27T02:16:06.370Z,5.47
2019-04-27T02:18:53.839Z,4.10
2019-04-27T02:21:41.271Z,3.37
2019-04-27T02:24:29.240Z,4.30
2019-04-27T02:27:11.371Z,4.43
2019-04-27T02:30:20.448Z,4.27
2019-04-27T02:33:25.862Z,5.83
2019-04-27T02:39:21.721Z,4.07
2019-04-27T02:42:10.224Z,4.47
2019-04-27T02:44:59.784Z,3.70
2019-04-27T02:47:49.035Z,3.23
2019-04-27T02:50:39.888Z,5.77
2019-04-27T02:53:45.754Z,3.20
2019-04-27T02:56:33.208Z,6.83
2019-04-27T02:59:20.931Z,3.03
2019-04-27T03:05:21.114Z,3.87
2019-04-27T03:08:10.194Z,3.20
2019-04-27T03:10:57.832Z,9.20
2019-04-27T03:20:06.276Z,4.10
2019-04-27T03:22:56.253Z,2.60
2019-04-27T03:26:00.334Z,2.50
2019-04-27T03:28:50.260Z,3.47
2019-04-27T03:31:42.539Z,2.90
2019-04-27T03:34:31.653Z,3.77
2019-04-27T03:37:16.328Z,3.47
2019-04-27T03:40:03.919Z,4.40
2019-04-27T03:45:45.465Z,3.00
2019-04-27T03:54:55.961Z,4.43
2019-04-27T03:58:02.716Z,5.33
2019-04-27T04:00:52.197Z,5.93
2019-04-27T04:03:43.408Z,2.63
2019-04-27T04:06:50.658Z,3.20
2019-04-27T04:09:41.995Z,4.20
2019-04-27T04:12:50.058Z,2.73
2019-04-27T04:15:56.569Z,6.03
2019-04-27T04:19:05.148Z,2.90
2019-04-27T04:21:46.480Z,6.33
2019-04-27T04:24:29.302Z,5.57
2019-04-27T04:27:29.922Z,3.20
2019-04-27T04:30:19.951Z,2.57
2019-04-27T04:33:10.160Z,7.87
2019-04-27T04:35:59.669Z,4.13
2019-04-27T04:38:50.565Z,3.67
2019-04-27T04:45:13.300Z,5.17
2019-04-27T04:53:59.731Z,4.20
2019-04-27T04:56:49.368Z,2.70
2019-04-27T04:59:38.954Z,6.47
2019-04-27T05:02:29.429Z,4.10
2019-04-27T05:05:19.333Z,3.63
2019-04-27T05:08:09.103Z,4.77
2019-04-27T05:10:56.928Z,5.03
2019-04-27T05:13:44.488Z,1.67
2019-04-27T05:16:33.035Z,4.50
2019-04-27T05:22:24.733Z,5.03
2019-04-27T05:25:12.164Z,3.70
2019-04-27T05:27:59.755Z,3.00
2019-04-27T05:30:49.067Z,4.07
2019-04-27T05:33:38.921Z,3.40
2019-04-27T05:36:41.753Z,4.97
2019-04-27T05:39:32.196Z,5.73
2019-04-27T05:42:20.046Z,2.27
2019-04-27T05:45:29.124Z,3.63
2019-04-27T05:48:27.380Z,3.47
2019-04-27T05:51:09.877Z,4.53
2019-04-27T05:53:58.712Z,4.37
2019-04-27T05:56:46.495Z,5.20
2019-04-27T05:59:33.931Z,3.90
2019-04-27T06:02:23.621Z,3.83
2019-04-27T06:05:11.565Z,5.43
2019-04-27T06:07:59.082Z,5.77
2019-04-27T06:10:46.556Z,6.07
2019-04-27T06:13:34.600Z,4.40
2019-04-27T06:16:24.031Z,4.50
2019-04-27T06:19:11.525Z,4.97
2019-04-27T06:21:59.422Z,4.63
2019-04-27T06:24:54.065Z,4.73
2019-04-27T06:27:40.184Z,6.53
2019-04-27T06:30:29.232Z,4.67
2019-04-27T06:33:29.718Z,6.10
2019-04-27T06:36:10.326Z,5.80
2019-04-27T06:41:41.347Z,4.73
2019-04-27T06:44:29.337Z,7.47
2019-04-27T06:47:19.091Z,7.77
2019-04-27T06:52:59.035Z,6.47
2019-04-27T06:58:53.017Z,9.30
2019-04-27T07:04:29.979Z,7.50
2019-04-27T07:07:19.383Z,8.87
2019-04-27T07:10:08.553Z,8.13
2019-04-27T07:12:59.740Z,7.57
2019-04-27T07:15:48.530Z,5.93
2019-04-27T07:18:36.860Z,6.23
2019-04-27T07:21:24.887Z,8.30
2019-04-27T07:24:12.331Z,8.20
2019-04-27T07:26:54.116Z,7.80
2019-04-27T07:29:44.648Z,6.40
2019-04-27T07:32:31.086Z,8.30
2019-04-27T07:35:39.324Z,8.33
2019-04-27T07:38:27.340Z,9.43
2019-04-27T07:41:19.544Z,6.60
2019-04-27T07:47:19.458Z,6.37
2019-04-27T07:53:22.215Z,10.27
2019-04-27T07:59:03.849Z,9.83
2019-04-27T08:01:52.492Z,8.13
2019-04-27T08:04:43.502Z,7.50
2019-04-27T08:07:31.312Z,7.80
2019-04-27T08:10:20.715Z,7.43
2019-04-27T08:13:09.572Z,14.57
2019-04-27T08:15:58.904Z,7.70
2019-04-27T08:18:46.414Z,10.73
2019-04-27T08:21:43.622Z,8.07
2019-04-27T08:24:25.792Z,8.47
2019-04-27T08:27:32.190Z,10.87
2019-04-27T08:30:35.485Z,9.13
2019-04-27T08:33:22.931Z,9.30
2019-04-27T08:36:12.740Z,24.90
2019-04-27T08:39:00.342Z,15.20
2019-04-27T08:41:49.447Z,12.77
2019-04-27T08:44:36.977Z,12.17
2019-04-27T08:47:24.452Z,10.23
2019-04-27T08:50:12.981Z,10.60
2019-04-27T08:53:00.836Z,11.63
2019-04-27T08:55:52.767Z,10.00
2019-04-27T08:58:40.256Z,11.67
2019-04-27T09:01:29.823Z,9.47
2019-04-27T09:04:16.956Z,10.53
2019-04-27T09:07:23.374Z,9.97
2019-04-27T09:13:42.008Z,13.33
2019-04-27T09:20:03.018Z,9.80
2019-04-27T09:22:55.296Z,11.87
2019-04-27T09:25:43.412Z,14.67
2019-04-27T09:31:28.831Z,12.87
2019-04-27T09:34:18.916Z,10.03
2019-04-27T09:37:06.705Z,24.90
2019-04-27T09:39:56.013Z,15.93
2019-04-27T09:42:43.886Z,11.50
2019-04-27T09:45:32.165Z,13.97
2019-04-27T09:48:17.722Z,8.50
2019-04-27T09:51:06.474Z,8.83
2019-04-27T09:53:57.680Z,11.37
2019-04-27T09:56:46.741Z,13.93
2019-04-27T09:59:53.535Z,13.00
2019-04-27T10:02:59.881Z,14.47
2019-04-27T10:05:47.728Z,14.07
2019-04-27T10:08:36.679Z,14.60
2019-04-27T10:11:21.430Z,6.93
2019-04-27T10:14:09.120Z,10.60
2019-04-27T10:16:59.388Z,6.17
2019-04-27T10:19:48.960Z,9.93
2019-04-27T10:22:41.172Z,10.83
2019-04-27T10:25:27.921Z,7.03
2019-04-27T10:28:15.480Z,5.77
2019-04-27T10:31:06.905Z,5.97
2019-04-27T10:37:00.750Z,4.73
2019-04-27T10:39:48.412Z,9.97
2019-04-27T10:42:36.171Z,9.37
2019-04-27T10:45:25.864Z,9.63
2019-04-27T10:48:16.311Z,7.17
2019-04-27T10:51:07.127Z,6.30
2019-04-27T10:53:55.715Z,9.60
2019-04-27T10:56:43.381Z,7.30
2019-04-27T11:02:24.329Z,11.13
2019-04-27T11:05:32.690Z,9.27
2019-04-27T11:08:20.292Z,14.37
2019-04-27T11:11:08.112Z,9.57
2019-04-27T11:13:58.236Z,9.73
2019-04-27T11:19:46.016Z,15.27
2019-04-27T11:22:38.076Z,9.17
2019-04-27T11:25:26.376Z,11.80
2019-04-27T11:28:15.661Z,8.10
2019-04-27T11:31:03.485Z,7.77
2019-04-27T11:33:50.846Z,10.47
2019-04-27T11:36:57.429Z,11.80
2019-04-27T11:39:47.475Z,9.30
2019-04-27T11:42:28.449Z,8.90
2019-04-27T11:45:15.933Z,6.67
2019-04-27T11:48:03.562Z,6.10
2019-04-27T11:53:47.564Z,7.27
2019-04-27T11:56:36.215Z,4.87
2019-04-27T11:59:24.814Z,3.40
2019-04-27T12:02:15.579Z,6.67
2019-04-27T12:05:03.414Z,4.23
2019-04-27T12:07:51.280Z,5.03
2019-04-27T12:10:38.815Z,5.10
2019-04-27T12:13:46.129Z,2.33
2019-04-27T12:16:33.740Z,3.40
2019-04-27T12:19:40.128Z,4.50
2019-04-27T12:22:27.742Z,1.80
2019-04-27T12:25:15.077Z,3.53
2019-04-27T12:28:15.319Z,5.30
2019-04-27T12:31:21.968Z,3.63
2019-04-27T12:37:19.125Z,3.00
2019-04-27T12:40:06.613Z,3.20
2019-04-27T12:42:54.912Z,6.03
2019-04-27T12:45:43.740Z,6.17
2019-04-27T12:48:38.877Z,3.83
2019-04-27T12:51:27.247Z,9.50
2019-04-27T12:57:41.681Z,6.80
2019-04-27T13:03:36.388Z,4.10
2019-04-27T13:06:24.035Z,5.93
2019-04-27T13:09:12.488Z,5.83
2019-04-27T13:12:17.539Z,4.87
2019-04-27T13:15:05.331Z,5.77
2019-04-27T13:17:52.879Z,7.70
2019-04-27T13:20:42.991Z,6.47
2019-04-27T13:23:34.041Z,6.13
2019-04-27T13:26:22.198Z,7.20
2019-04-27T13:29:09.853Z,7.67
2019-04-27T13:32:01.926Z,7.00
2019-04-27T13:37:40.606Z,7.33
2019-04-27T13:40:28.120Z,4.90
2019-04-27T13:46:46.020Z,8.93
2019-04-27T13:52:46.618Z,4.77
2019-04-27T13:55:28.710Z,2.97
2019-04-27T13:58:16.269Z,2.30
2019-04-27T14:04:17.811Z,1.40
2019-04-27T14:07:09.077Z,3.90
2019-04-27T14:09:57.030Z,2.07
2019-04-27T14:12:44.628Z,1.97
2019-04-27T14:18:19.151Z,4.60
2019-04-27T14:21:09.576Z,1.33
2019-04-27T14:23:58.600Z,2.77
2019-04-27T14:27:06.187Z,3.53
2019-04-27T14:29:57.034Z,4.13
2019-04-27T14:32:43.871Z,4.57
2019-04-27T14:35:38.942Z,4.47
2019-04-27T14:38:26.605Z,5.40
2019-04-27T14:41:15.995Z,9.40
2019-04-27T14:44:08.139Z,5.60
2019-04-27T14:46:53.077Z,5.07
2019-04-27T14:49:59.448Z,3.53
2019-04-27T14:55:53.680Z,2.97
2019-04-27T14:58:41.808Z,4.60
2019-04-27T15:07:34.347Z,4.33
2019-04-27T15:10:26.508Z,9.10
2019-04-27T15:13:14.258Z,6.53
2019-04-27T15:16:02.686Z,9.43
2019-04-27T15:21:56.476Z,6.13
2019-04-27T15:25:06.435Z,6.27
2019-04-27T15:31:24.955Z,7.73
2019-04-27T15:40:24.298Z,10.47
2019-04-27T15:46:27.876Z,12.27
2019-04-27T15:49:14.735Z,6.97
2019-04-27T15:52:04.493Z,6.20
2019-04-27T15:54:51.454Z,4.67
2019-04-27T15:57:42.575Z,7.57
2019-04-27T16:00:29.234Z,3.07
2019-04-27T16:03:18.416Z,7.10
2019-04-27T16:09:16.159Z,10.37
2019-04-27T16:12:10.686Z,5.10
2019-04-27T16:14:55.388Z,6.87
2019-04-27T16:17:51.052Z,7.80
2019-04-27T16:20:33.891Z,7.23
2019-04-27T16:23:22.031Z,7.13
2019-04-27T16:26:15.051Z,6.40
2019-04-27T16:29:01.496Z,5.90
2019-04-27T16:31:54.570Z,4.80
2019-04-27T16:34:42.169Z,3.03
2019-04-27T16:37:52.026Z,4.40
2019-04-27T16:40:41.799Z,7.07
2019-04-27T16:43:32.786Z,5.23
2019-04-27T16:46:21.960Z,4.60
2019-04-27T16:55:13.290Z,3.97
2019-04-27T16:58:02.778Z,7.17
2019-04-27T17:01:00.141Z,8.33
2019-04-27T17:03:48.341Z,17.80
2019-04-27T17:09:26.432Z,7.80
2019-04-27T17:12:18.050Z,8.90
2019-04-27T17:15:25.101Z,9.83
2019-04-27T17:18:31.487Z,8.17
2019-04-27T17:24:46.799Z,6.20
2019-04-27T17:27:49.490Z,9.30
2019-04-27T17:30:44.983Z,9.70
2019-04-27T17:36:40.354Z,7.83
2019-04-27T17:39:28.308Z,8.27
2019-04-27T17:42:22.786Z,8.80
2019-04-27T17:45:10.301Z,7.57
2019-04-27T17:48:18.411Z,10.00
2019-04-27T17:51:06.545Z,7.83
2019-04-27T17:53:55.172Z,11.87
2019-04-27T17:56:49.406Z,13.37
2019-04-27T17:59:37.584Z,8.10
2019-04-27T18:02:40.785Z,9.60
2019-04-27T18:05:28.602Z,10.33
2019-04-27T18:08:25.154Z,10.03
2019-04-27T18:20:13.052Z,7.57
2019-04-27T18:29:12.826Z,8.07
2019-04-27T18:32:01.223Z,8.00
2019-04-27T18:34:50.735Z,8.97
2019-04-27T18:40:34.667Z,9.63
2019-04-27T18:43:25.652Z,13.70
2019-04-27T18:46:21.546Z,12.90
2019-04-27T18:49:27.241Z,12.77
2019-04-27T18:52:35.574Z,14.43
2019-04-27T18:55:24.474Z,18.03
2019-04-27T18:58:12.018Z,22.97
2019-04-27T19:01:01.812Z,28.83
2019-04-27T19:03:52.198Z,31.77
2019-04-27T19:07:00.114Z,39.97
2019-04-27T19:12:30.867Z,22.80
2019-04-27T19:15:18.596Z,24.87
2019-04-27T19:17:58.938Z,20.20
2019-04-27T19:20:48.341Z,14.63
2019-04-27T19:27:16.292Z,11.77
2019-04-27T19:33:01.113Z,10.97
2019-04-27T19:35:50.776Z,10.80
2019-04-27T19:38:39.243Z,12.17
2019-04-27T19:41:28.901Z,11.37
2019-04-27T19:47:12.098Z,8.77
2019-04-27T19:53:19.266Z,10.43
2019-04-27T19:59:38.946Z,11.07
2019-04-27T20:02:28.847Z,8.13
2019-04-27T20:05:18.740Z,12.27
2019-04-27T20:11:19.034Z,9.73
2019-04-27T20:14:07.236Z,15.00
2019-04-27T20:20:01.681Z,16.40
2019-04-27T20:22:49.578Z,11.30
2019-04-27T20:25:37.884Z,12.50
2019-04-27T20:28:25.456Z,14.70
2019-04-27T20:31:10.901Z,12.10
2019-04-27T20:33:58.477Z,14.03
2019-04-27T20:36:46.259Z,16.83
2019-04-27T20:39:55.592Z,13.57
2019-04-27T20:42:43.130Z,9.80
2019-04-27T20:45:33.704Z,12.07
2019-04-27T20:54:12.921Z,14.33
2019-04-27T20:57:01.586Z,12.63
2019-04-27T20:59:52.259Z,11.37
2019-04-27T21:02:58.752Z,14.50
2019-04-27T21:06:11.212Z,12.20
2019-04-27T21:09:01.164Z,16.67
2019-04-27T21:11:49.836Z,12.87
2019-04-27T21:14:37.699Z,12.70
2019-04-27T21:17:25.632Z,14.20
2019-04-27T21:23:24.118Z,12.80
2019-04-27T21:26:14.429Z,16.93
2019-04-27T21:29:05.356Z,18.67
2019-04-27T21:37:53.586Z,13.10
2019-04-27T21:40:53.847Z,15.00
2019-04-27T21:43:51.135Z,12.73
2019-04-27T21:46:41.705Z,11.57
2019-04-27T21:49:34.895Z,12.50
2019-04-27T21:55:35.454Z,12.80
2019-04-27T21:58:28.917Z,15.73
2019-04-27T22:04:15.279Z,11.13
2019-04-27T22:07:02.877Z,11.67
2019-04-27T22:09:52.347Z,17.77
2019-04-27T22:15:49.151Z,12.40
2019-04-27T22:18:37.970Z,13.57
2019-04-27T22:21:27.531Z,14.43
2019-04-27T22:27:23.528Z,15.93
2019-04-27T22:30:11.113Z,15.67
2019-04-27T22:32:59.051Z,17.10
2019-04-27T22:35:46.938Z,17.67
2019-04-27T22:38:36.732Z,14.53
2019-04-27T22:41:45.437Z,16.80
2019-04-27T22:47:31.844Z,16.97
2019-04-27T22:50:21.024Z,21.07
2019-04-27T22:53:08.871Z,12.00
2019-04-27T22:56:15.277Z,11.83
2019-04-27T22:59:21.661Z,13.57
2019-04-27T23:02:21.910Z,15.57
2019-04-27T23:05:10.856Z,17.07
2019-04-27T23:07:59.032Z,14.63
2019-04-27T23:10:46.746Z,12.67
2019-04-27T23:13:34.531Z,16.23
2019-04-27T23:16:23.794Z,18.23
2019-04-27T23:19:11.268Z,17.50
2019-04-27T23:22:00.470Z,11.67
2019-04-27T23:24:42.189Z,12.17
2019-04-27T23:27:31.719Z,16.10
2019-04-27T23:33:31.176Z,12.73
2019-04-27T23:36:13.527Z,14.83
2019-04-27T23:42:06.880Z,14.43
2019-04-27T23:44:55.141Z,17.27
2019-04-27T23:47:42.685Z,15.43
2019-04-27T23:53:28.333Z,21.00
2019-04-27T23:56:15.931Z,15.27
2019-04-27T23:59:03.355Z,15.83
